sensor_id;sensor_type;location;lat;lon;timestamp;pressure;altitude;pressure_sealevel;temperature;humidity
11268;BME280;49397;47.474;9.416;2022-11-03T00:01:49;95843.34;;;7.67;96.91
11268;BME280;49397;47.474;9.416;2022-11-03T00:04:17;95843.31;;;7.72;96.88
11268;BME280;49397;47.474;9.416;2022-11-03T00:06:44;95837.09;;;7.71;97.31
11268;BME280;49397;47.474;9.416;2022-11-03T00:09:12;95819.31;;;7.65;96.80
11268;BME280;49397;47.474;9.416;2022-11-03T00:11:39;95837.50;;;7.89;96.61
11268;BME280;49397;47.474;9.416;2022-11-03T00:14:06;95834.59;;;7.80;96.23
11268;BME280;49397;47.474;9.416;2022-11-03T00:16:33;95837.34;;;7.75;95.84
11268;BME280;49397;47.474;9.416;2022-11-03T00:18:59;95837.63;;;7.73;95.83
11268;BME280;49397;47.474;9.416;2022-11-03T00:21:24;95827.09;;;7.72;96.08
11268;BME280;49397;47.474;9.416;2022-11-03T00:23:50;95829.47;;;7.79;96.25
11268;BME280;49397;47.474;9.416;2022-11-03T00:26:26;95833.00;;;7.79;96.31
11268;BME280;49397;47.474;9.416;2022-11-03T00:28:54;95837.78;;;7.87;96.49
11268;BME280;49397;47.474;9.416;2022-11-03T00:31:21;95833.16;;;7.88;97.56
11268;BME280;49397;47.474;9.416;2022-11-03T00:33:48;95831.56;;;7.87;97.32
11268;BME280;49397;47.474;9.416;2022-11-03T00:36:16;95835.59;;;7.89;96.71
11268;BME280;49397;47.474;9.416;2022-11-03T00:38:43;95835.09;;;7.87;96.01
11268;BME280;49397;47.474;9.416;2022-11-03T00:41:09;95826.75;;;7.84;95.88
11268;BME280;49397;47.474;9.416;2022-11-03T00:43:36;95830.09;;;7.70;95.54
11268;BME280;49397;47.474;9.416;2022-11-03T00:46:02;95831.78;;;7.61;95.06
11268;BME280;49397;47.474;9.416;2022-11-03T00:48:30;95825.00;;;7.64;95.98
11268;BME280;49397;47.474;9.416;2022-11-03T00:53:39;95832.63;;;7.86;96.25
11268;BME280;49397;47.474;9.416;2022-11-03T00:56:06;95809.25;;;7.76;94.21
11268;BME280;49397;47.474;9.416;2022-11-03T00:58:32;95824.13;;;7.73;95.39
11268;BME280;49397;47.474;9.416;2022-11-03T01:01:06;95825.09;;;7.83;95.77
11268;BME280;49397;47.474;9.416;2022-11-03T01:03:34;95812.41;;;7.83;97.03
11268;BME280;49397;47.474;9.416;2022-11-03T01:06:01;95808.88;;;7.88;98.10
11268;BME280;49397;47.474;9.416;2022-11-03T01:08:45;95803.69;;;7.91;98.50
11268;BME280;49397;47.474;9.416;2022-11-03T01:11:14;95803.91;;;8.00;98.34
11268;BME280;49397;47.474;9.416;2022-11-03T01:13:58;95794.38;;;8.07;99.09
11268;BME280;49397;47.474;9.416;2022-11-03T01:16:24;95771.69;;;8.03;99.99
11268;BME280;49397;47.474;9.416;2022-11-03T01:18:50;95773.72;;;8.16;100.00
11268;BME280;49397;47.474;9.416;2022-11-03T01:21:16;95769.59;;;8.24;100.00
11268;BME280;49397;47.474;9.416;2022-11-03T01:23:42;95768.78;;;8.28;100.00
11268;BME280;49397;47.474;9.416;2022-11-03T01:26:09;95767.91;;;8.33;100.00
11268;BME280;49397;47.474;9.416;2022-11-03T01:28:37;95773.50;;;8.36;100.00
11268;BME280;49397;47.474;9.416;2022-11-03T01:31:04;95764.47;;;8.22;100.00
11268;BME280;49397;47.474;9.416;2022-11-03T01:33:30;95763.38;;;8.28;100.00
11268;BME280;49397;47.474;9.416;2022-11-03T01:35:56;95772.03;;;8.25;100.00
11268;BME280;49397;47.474;9.416;2022-11-03T01:38:21;95771.41;;;8.05;100.00
11268;BME280;49397;47.474;9.416;2022-11-03T01:40:47;95755.56;;;7.98;100.00
11268;BME280;49397;47.474;9.416;2022-11-03T01:43:20;95761.69;;;8.04;100.00
11268;BME280;49397;47.474;9.416;2022-11-03T01:45:49;95752.28;;;8.01;100.00
11268;BME280;49397;47.474;9.416;2022-11-03T01:48:17;95754.69;;;8.03;100.00
11268;BME280;49397;47.474;9.416;2022-11-03T01:50:44;95732.31;;;7.97;100.00
11268;BME280;49397;47.474;9.416;2022-11-03T01:53:12;95748.97;;;8.09;100.00
11268;BME280;49397;47.474;9.416;2022-11-03T01:55:39;95733.81;;;8.08;100.00
11268;BME280;49397;47.474;9.416;2022-11-03T01:58:16;95728.94;;;8.10;100.00
11268;BME280;49397;47.474;9.416;2022-11-03T02:00:46;95732.66;;;8.14;100.00
11268;BME280;49397;47.474;9.416;2022-11-03T02:03:12;95712.09;;;7.95;100.00
11268;BME280;49397;47.474;9.416;2022-11-03T02:05:39;95723.16;;;7.98;100.00
11268;BME280;49397;47.474;9.416;2022-11-03T02:08:25;95719.72;;;7.88;100.00
11268;BME280;49397;47.474;9.416;2022-11-03T02:10:52;95727.44;;;7.99;100.00
11268;BME280;49397;47.474;9.416;2022-11-03T02:13:22;95727.78;;;7.93;100.00
11268;BME280;49397;47.474;9.416;2022-11-03T02:15:51;95723.06;;;7.80;100.00
11268;BME280;49397;47.474;9.416;2022-11-03T02:18:19;95717.03;;;7.59;100.00
11268;BME280;49397;47.474;9.416;2022-11-03T02:20:48;95716.31;;;7.53;100.00
11268;BME280;49397;47.474;9.416;2022-11-03T02:23:29;95708.50;;;7.52;100.00
11268;BME280;49397;47.474;9.416;2022-11-03T02:25:58;95715.44;;;7.58;100.00
11268;BME280;49397;47.474;9.416;2022-11-03T02:28:29;95702.56;;;7.50;100.00
11268;BME280;49397;47.474;9.416;2022-11-03T02:31:27;95713.94;;;7.47;99.63
11268;BME280;49397;47.474;9.416;2022-11-03T02:34:06;95711.91;;;7.29;99.68
11268;BME280;49397;47.474;9.416;2022-11-03T02:39:52;95715.22;;;7.21;99.44
11268;BME280;49397;47.474;9.416;2022-11-03T02:42:22;95708.84;;;7.12;99.46
11268;BME280;49397;47.474;9.416;2022-11-03T02:44:50;95707.53;;;7.09;99.64
11268;BME280;49397;47.474;9.416;2022-11-03T02:47:17;95701.81;;;7.16;99.02
11268;BME280;49397;47.474;9.416;2022-11-03T02:49:47;95702.63;;;7.11;97.81
11268;BME280;49397;47.474;9.416;2022-11-03T02:52:36;95709.44;;;7.04;99.34
11268;BME280;49397;47.474;9.416;2022-11-03T02:57:49;95697.44;;;6.86;97.62
11268;BME280;49397;47.474;9.416;2022-11-03T03:00:17;95695.00;;;6.85;97.36
11268;BME280;49397;47.474;9.416;2022-11-03T03:02:59;95698.94;;;6.64;97.94
11268;BME280;49397;47.474;9.416;2022-11-03T03:05:28;95686.13;;;6.46;97.41
11268;BME280;49397;47.474;9.416;2022-11-03T03:08:01;95674.47;;;6.55;97.92
11268;BME280;49397;47.474;9.416;2022-11-03T03:10:32;95693.69;;;6.82;98.15
11268;BME280;49397;47.474;9.416;2022-11-03T03:12:58;95693.56;;;6.97;97.50
11268;BME280;49397;47.474;9.416;2022-11-03T03:15:46;95693.81;;;7.01;97.86
11268;BME280;49397;47.474;9.416;2022-11-03T03:18:22;95688.72;;;6.99;98.65
11268;BME280;49397;47.474;9.416;2022-11-03T03:20:55;95679.47;;;7.05;99.02
11268;BME280;49397;47.474;9.416;2022-11-03T03:23:27;95683.84;;;7.01;99.72
11268;BME280;49397;47.474;9.416;2022-11-03T03:26:00;95684.44;;;6.93;99.39
11268;BME280;49397;47.474;9.416;2022-11-03T03:28:34;95672.13;;;6.82;100.00
11268;BME280;49397;47.474;9.416;2022-11-03T03:31:04;95676.41;;;6.83;100.00
11268;BME280;49397;47.474;9.416;2022-11-03T03:33:32;95672.41;;;6.81;98.81
11268;BME280;49397;47.474;9.416;2022-11-03T03:36:00;95674.03;;;6.77;99.21
11268;BME280;49397;47.474;9.416;2022-11-03T03:38:31;95670.28;;;6.78;99.15
11268;BME280;49397;47.474;9.416;2022-11-03T03:40:59;95665.72;;;6.73;99.78
11268;BME280;49397;47.474;9.416;2022-11-03T03:43:28;95658.06;;;6.47;99.78
11268;BME280;49397;47.474;9.416;2022-11-03T03:45:58;95651.06;;;6.51;100.00
11268;BME280;49397;47.474;9.416;2022-11-03T03:48:25;95656.97;;;6.53;100.00
11268;BME280;49397;47.474;9.416;2022-11-03T03:50:51;95654.75;;;6.60;100.00
11268;BME280;49397;47.474;9.416;2022-11-03T03:53:18;95650.09;;;6.70;100.00
11268;BME280;49397;47.474;9.416;2022-11-03T03:55:46;95638.22;;;6.71;100.00
11268;BME280;49397;47.474;9.416;2022-11-03T03:58:13;95640.94;;;6.71;100.00
11268;BME280;49397;47.474;9.416;2022-11-03T04:00:40;95643.81;;;6.80;100.00
11268;BME280;49397;47.474;9.416;2022-11-03T04:03:14;95633.03;;;6.80;100.00
11268;BME280;49397;47.474;9.416;2022-11-03T04:05:41;95635.94;;;6.88;100.00
11268;BME280;49397;47.474;9.416;2022-11-03T04:08:06;95638.59;;;6.93;100.00
11268;BME280;49397;47.474;9.416;2022-11-03T04:10:32;95632.63;;;6.96;100.00
11268;BME280;49397;47.474;9.416;2022-11-03T04:12:57;95622.66;;;6.97;100.00
11268;BME280;49397;47.474;9.416;2022-11-03T04:15:41;95627.56;;;6.90;100.00
11268;BME280;49397;47.474;9.416;2022-11-03T04:18:27;95624.94;;;6.80;100.00
11268;BME280;49397;47.474;9.416;2022-11-03T04:21:12;95623.38;;;6.74;100.00
11268;BME280;49397;47.474;9.416;2022-11-03T04:23:57;95620.41;;;6.75;100.00
11268;BME280;49397;47.474;9.416;2022-11-03T04:26:25;95618.03;;;6.69;100.00
11268;BME280;49397;47.474;9.416;2022-11-03T04:28:52;95610.00;;;6.64;100.00
11268;BME280;49397;47.474;9.416;2022-11-03T04:31:18;95605.06;;;6.71;100.00
11268;BME280;49397;47.474;9.416;2022-11-03T04:33:45;95600.66;;;6.80;100.00
11268;BME280;49397;47.474;9.416;2022-11-03T04:36:20;95605.34;;;6.69;100.00
11268;BME280;49397;47.474;9.416;2022-11-03T04:38:47;95593.69;;;6.79;100.00
11268;BME280;49397;47.474;9.416;2022-11-03T04:41:19;95588.91;;;6.71;100.00
11268;BME280;49397;47.474;9.416;2022-11-03T04:43:45;95589.94;;;6.75;100.00
11268;BME280;49397;47.474;9.416;2022-11-03T04:46:15;95583.97;;;6.83;100.00
11268;BME280;49397;47.474;9.416;2022-11-03T04:48:42;95590.88;;;6.60;100.00
11268;BME280;49397;47.474;9.416;2022-11-03T04:51:16;95593.66;;;6.45;100.00
11268;BME280;49397;47.474;9.416;2022-11-03T04:53:47;95585.00;;;6.53;100.00
11268;BME280;49397;47.474;9.416;2022-11-03T04:56:16;95574.31;;;6.43;100.00
11268;BME280;49397;47.474;9.416;2022-11-03T04:58:42;95560.88;;;6.38;100.00
11268;BME280;49397;47.474;9.416;2022-11-03T05:01:13;95573.88;;;6.60;100.00
11268;BME280;49397;47.474;9.416;2022-11-03T05:03:40;95563.41;;;6.58;100.00
11268;BME280;49397;47.474;9.416;2022-11-03T05:06:19;95561.53;;;6.54;100.00
11268;BME280;49397;47.474;9.416;2022-11-03T05:08:48;95558.00;;;6.58;100.00
11268;BME280;49397;47.474;9.416;2022-11-03T05:13:52;95557.16;;;6.63;100.00
11268;BME280;49397;47.474;9.416;2022-11-03T05:16:19;95558.22;;;6.67;100.00
11268;BME280;49397;47.474;9.416;2022-11-03T05:18:47;95548.97;;;6.73;100.00
11268;BME280;49397;47.474;9.416;2022-11-03T05:21:17;95556.91;;;6.59;100.00
11268;BME280;49397;47.474;9.416;2022-11-03T05:23:47;95546.47;;;6.53;100.00
11268;BME280;49397;47.474;9.416;2022-11-03T05:26:27;95544.09;;;6.46;100.00
11268;BME280;49397;47.474;9.416;2022-11-03T05:28:57;95534.72;;;6.39;100.00
11268;BME280;49397;47.474;9.416;2022-11-03T05:31:26;95527.19;;;6.36;100.00
11268;BME280;49397;47.474;9.416;2022-11-03T05:33:56;95539.84;;;6.40;100.00
11268;BME280;49397;47.474;9.416;2022-11-03T05:36:23;95540.63;;;6.41;100.00
11268;BME280;49397;47.474;9.416;2022-11-03T05:38:50;95533.69;;;6.35;100.00
11268;BME280;49397;47.474;9.416;2022-11-03T05:41:23;95527.16;;;6.41;100.00
11268;BME280;49397;47.474;9.416;2022-11-03T05:44:03;95531.50;;;6.37;100.00
11268;BME280;49397;47.474;9.416;2022-11-03T05:46:38;95513.34;;;6.47;100.00
11268;BME280;49397;47.474;9.416;2022-11-03T05:49:05;95493.75;;;6.42;100.00
11268;BME280;49397;47.474;9.416;2022-11-03T05:51:33;95496.78;;;6.35;100.00
11268;BME280;49397;47.474;9.416;2022-11-03T05:54:04;95509.06;;;6.46;100.00
11268;BME280;49397;47.474;9.416;2022-11-03T05:56:31;95509.66;;;6.38;100.00
11268;BME280;49397;47.474;9.416;2022-11-03T05:58:58;95507.38;;;6.22;100.00
11268;BME280;49397;47.474;9.416;2022-11-03T06:01:33;95503.13;;;6.15;100.00
11268;BME280;49397;47.474;9.416;2022-11-03T06:04:05;95492.06;;;6.17;100.00
11268;BME280;49397;47.474;9.416;2022-11-03T06:06:37;95499.13;;;6.42;100.00
11268;BME280;49397;47.474;9.416;2022-11-03T06:09:10;95495.09;;;6.39;100.00
11268;BME280;49397;47.474;9.416;2022-11-03T06:11:38;95500.50;;;6.39;100.00
11268;BME280;49397;47.474;9.416;2022-11-03T06:14:19;95493.94;;;6.50;100.00
11268;BME280;49397;47.474;9.416;2022-11-03T06:17:09;95498.09;;;6.38;100.00
11268;BME280;49397;47.474;9.416;2022-11-03T06:19:38;95501.84;;;6.42;100.00
11268;BME280;49397;47.474;9.416;2022-11-03T06:24:44;95496.56;;;6.27;100.00
11268;BME280;49397;47.474;9.416;2022-11-03T06:27:19;95494.09;;;6.30;100.00
11268;BME280;49397;47.474;9.416;2022-11-03T06:29:54;95494.34;;;6.34;100.00
11268;BME280;49397;47.474;9.416;2022-11-03T06:32:21;95482.69;;;6.43;100.00
11268;BME280;49397;47.474;9.416;2022-11-03T06:34:57;95480.69;;;6.54;100.00
11268;BME280;49397;47.474;9.416;2022-11-03T06:37:26;95483.59;;;6.62;100.00
11268;BME280;49397;47.474;9.416;2022-11-03T06:39:57;95486.44;;;6.71;100.00
11268;BME280;49397;47.474;9.416;2022-11-03T06:42:25;95485.13;;;6.68;100.00
11268;BME280;49397;47.474;9.416;2022-11-03T06:44:52;95486.00;;;6.64;100.00
11268;BME280;49397;47.474;9.416;2022-11-03T06:47:23;95478.94;;;6.68;100.00
11268;BME280;49397;47.474;9.416;2022-11-03T06:49:54;95477.50;;;6.75;100.00
11268;BME280;49397;47.474;9.416;2022-11-03T06:52:30;95479.25;;;6.90;100.00
11268;BME280;49397;47.474;9.416;2022-11-03T06:55:21;95476.31;;;6.86;100.00
11268;BME280;49397;47.474;9.416;2022-11-03T06:57:48;95480.16;;;6.80;100.00
11268;BME280;49397;47.474;9.416;2022-11-03T07:00:19;95483.66;;;6.81;100.00
11268;BME280;49397;47.474;9.416;2022-11-03T07:02:56;95480.59;;;6.92;100.00
11268;BME280;49397;47.474;9.416;2022-11-03T07:05:25;95462.88;;;6.81;100.00
11268;BME280;49397;47.474;9.416;2022-11-03T07:07:54;95473.22;;;6.98;100.00
11268;BME280;49397;47.474;9.416;2022-11-03T07:10:27;95474.31;;;6.97;100.00
11268;BME280;49397;47.474;9.416;2022-11-03T07:12:54;95468.59;;;7.03;100.00
11268;BME280;49397;47.474;9.416;2022-11-03T07:15:30;95470.41;;;7.08;100.00
11268;BME280;49397;47.474;9.416;2022-11-03T07:17:58;95454.53;;;7.06;100.00
11268;BME280;49397;47.474;9.416;2022-11-03T07:20:25;95453.59;;;7.16;100.00
11268;BME280;49397;47.474;9.416;2022-11-03T07:22:52;95459.53;;;7.36;100.00
11268;BME280;49397;47.474;9.416;2022-11-03T07:25:20;95462.84;;;7.52;100.00
11268;BME280;49397;47.474;9.416;2022-11-03T07:27:54;95463.13;;;7.50;100.00
11268;BME280;49397;47.474;9.416;2022-11-03T07:30:23;95449.47;;;7.60;100.00
11268;BME280;49397;47.474;9.416;2022-11-03T07:32:53;95456.56;;;7.75;100.00
11268;BME280;49397;47.474;9.416;2022-11-03T07:37:51;95445.69;;;7.80;100.00
11268;BME280;49397;47.474;9.416;2022-11-03T07:40:30;95448.91;;;7.82;100.00
11268;BME280;49397;47.474;9.416;2022-11-03T07:43:01;95451.91;;;7.81;100.00
11268;BME280;49397;47.474;9.416;2022-11-03T07:45:44;95446.16;;;7.87;100.00
11268;BME280;49397;47.474;9.416;2022-11-03T07:50:41;95448.88;;;8.01;100.00
11268;BME280;49397;47.474;9.416;2022-11-03T07:53:35;95435.75;;;7.94;100.00
11268;BME280;49397;47.474;9.416;2022-11-03T07:56:18;95431.13;;;8.13;100.00
11268;BME280;49397;47.474;9.416;2022-11-03T07:58:44;95428.47;;;8.27;100.00
11268;BME280;49397;47.474;9.416;2022-11-03T08:01:42;95416.91;;;8.26;100.00
11268;BME280;49397;47.474;9.416;2022-11-03T08:04:20;95404.09;;;8.32;100.00
11268;BME280;49397;47.474;9.416;2022-11-03T08:06:47;95403.28;;;8.13;100.00
11268;BME280;49397;47.474;9.416;2022-11-03T08:09:13;95396.88;;;8.09;100.00
11268;BME280;49397;47.474;9.416;2022-11-03T08:11:39;95398.63;;;8.18;100.00
11268;BME280;49397;47.474;9.416;2022-11-03T08:14:04;95394.16;;;8.27;100.00
11268;BME280;49397;47.474;9.416;2022-11-03T08:16:30;95385.38;;;8.35;100.00
11268;BME280;49397;47.474;9.416;2022-11-03T08:18:55;95383.09;;;8.56;100.00
11268;BME280;49397;47.474;9.416;2022-11-03T08:21:21;95367.38;;;8.58;100.00
11268;BME280;49397;47.474;9.416;2022-11-03T08:23:46;95386.69;;;8.51;100.00
11268;BME280;49397;47.474;9.416;2022-11-03T08:26:12;95389.41;;;8.51;100.00
11268;BME280;49397;47.474;9.416;2022-11-03T08:28:37;95383.09;;;8.42;100.00
11268;BME280;49397;47.474;9.416;2022-11-03T08:31:03;95389.41;;;8.51;100.00
11268;BME280;49397;47.474;9.416;2022-11-03T08:33:33;95386.53;;;8.61;100.00
11268;BME280;49397;47.474;9.416;2022-11-03T08:36:00;95394.22;;;8.68;100.00
11268;BME280;49397;47.474;9.416;2022-11-03T08:38:26;95402.09;;;8.37;100.00
11268;BME280;49397;47.474;9.416;2022-11-03T08:40:52;95387.53;;;8.52;100.00
11268;BME280;49397;47.474;9.416;2022-11-03T08:43:18;95385.31;;;8.67;100.00
11268;BME280;49397;47.474;9.416;2022-11-03T08:45:43;95380.31;;;8.61;100.00
11268;BME280;49397;47.474;9.416;2022-11-03T08:48:10;95370.69;;;8.55;100.00
11268;BME280;49397;47.474;9.416;2022-11-03T08:50:36;95369.38;;;8.52;100.00
11268;BME280;49397;47.474;9.416;2022-11-03T08:53:01;95374.91;;;8.61;100.00
11268;BME280;49397;47.474;9.416;2022-11-03T08:55:27;95371.72;;;8.72;100.00
11268;BME280;49397;47.474;9.416;2022-11-03T08:57:52;95366.47;;;8.76;100.00
11268;BME280;49397;47.474;9.416;2022-11-03T09:00:18;95363.59;;;8.72;100.00
11268;BME280;49397;47.474;9.416;2022-11-03T09:02:44;95365.38;;;8.50;100.00
11268;BME280;49397;47.474;9.416;2022-11-03T09:05:11;95362.06;;;8.66;100.00
11268;BME280;49397;47.474;9.416;2022-11-03T09:07:37;95354.94;;;8.43;100.00
11268;BME280;49397;47.474;9.416;2022-11-03T09:10:08;95356.97;;;8.51;100.00
11268;BME280;49397;47.474;9.416;2022-11-03T09:12:35;95341.44;;;8.57;100.00
11268;BME280;49397;47.474;9.416;2022-11-03T09:15:01;95347.44;;;8.81;100.00
11268;BME280;49397;47.474;9.416;2022-11-03T09:17:27;95350.47;;;8.79;100.00
11268;BME280;49397;47.474;9.416;2022-11-03T09:19:52;95359.75;;;8.87;100.00
11268;BME280;49397;47.474;9.416;2022-11-03T09:22:18;95346.47;;;8.77;100.00
11268;BME280;49397;47.474;9.416;2022-11-03T09:24:43;95355.94;;;9.01;99.94
11268;BME280;49397;47.474;9.416;2022-11-03T09:27:09;95351.56;;;9.05;98.46
11268;BME280;49397;47.474;9.416;2022-11-03T09:29:34;95352.53;;;9.09;98.46
11268;BME280;49397;47.474;9.416;2022-11-03T09:32:00;95343.50;;;9.28;97.08
11268;BME280;49397;47.474;9.416;2022-11-03T09:34:25;95344.88;;;9.25;96.97
11268;BME280;49397;47.474;9.416;2022-11-03T09:36:51;95338.44;;;9.35;96.55
11268;BME280;49397;47.474;9.416;2022-11-03T09:39:16;95337.41;;;9.44;97.10
11268;BME280;49397;47.474;9.416;2022-11-03T09:41:42;95348.94;;;9.50;97.52
11268;BME280;49397;47.474;9.416;2022-11-03T09:44:08;95341.00;;;9.53;96.66
11268;BME280;49397;47.474;9.416;2022-11-03T09:46:34;95339.38;;;9.66;96.65
11268;BME280;49397;47.474;9.416;2022-11-03T09:49:01;95338.75;;;9.69;96.06
11268;BME280;49397;47.474;9.416;2022-11-03T09:51:27;95336.81;;;9.69;95.20
11268;BME280;49397;47.474;9.416;2022-11-03T09:53:55;95338.75;;;9.69;95.04
11268;BME280;49397;47.474;9.416;2022-11-03T09:56:23;95339.06;;;9.89;95.33
11268;BME280;49397;47.474;9.416;2022-11-03T09:58:49;95342.19;;;10.05;93.44
11268;BME280;49397;47.474;9.416;2022-11-03T10:01:15;95350.38;;;10.13;93.54
11268;BME280;49397;47.474;9.416;2022-11-03T10:03:41;95343.16;;;9.87;93.03
11268;BME280;49397;47.474;9.416;2022-11-03T10:06:07;95343.25;;;10.17;93.30
11268;BME280;49397;47.474;9.416;2022-11-03T10:08:34;95339.81;;;10.34;91.95
11268;BME280;49397;47.474;9.416;2022-11-03T10:11:02;95347.09;;;10.47;91.27
11268;BME280;49397;47.474;9.416;2022-11-03T10:13:36;95349.53;;;10.57;90.37
11268;BME280;49397;47.474;9.416;2022-11-03T10:16:08;95353.34;;;10.56;92.13
11268;BME280;49397;47.474;9.416;2022-11-03T10:18:35;95349.53;;;10.57;92.09
11268;BME280;49397;47.474;9.416;2022-11-03T10:21:14;95342.47;;;10.56;90.91
11268;BME280;49397;47.474;9.416;2022-11-03T10:23:39;95340.72;;;10.51;90.17
11268;BME280;49397;47.474;9.416;2022-11-03T10:26:10;95346.81;;;10.26;91.96
11268;BME280;49397;47.474;9.416;2022-11-03T10:28:37;95333.25;;;10.26;92.11
11268;BME280;49397;47.474;9.416;2022-11-03T10:31:05;95335.28;;;10.51;93.42
11268;BME280;49397;47.474;9.416;2022-11-03T10:33:39;95328.53;;;10.71;92.17
11268;BME280;49397;47.474;9.416;2022-11-03T10:38:40;95320.44;;;10.88;91.57
11268;BME280;49397;47.474;9.416;2022-11-03T10:41:16;95325.84;;;10.88;91.10
11268;BME280;49397;47.474;9.416;2022-11-03T10:43:43;95314.88;;;10.93;91.86
11268;BME280;49397;47.474;9.416;2022-11-03T10:46:12;95312.66;;;11.04;91.38
11268;BME280;49397;47.474;9.416;2022-11-03T10:48:39;95309.72;;;10.83;90.79
11268;BME280;49397;47.474;9.416;2022-11-03T10:51:06;95326.34;;;10.90;91.69
11268;BME280;49397;47.474;9.416;2022-11-03T10:53:33;95317.53;;;10.76;90.68
11268;BME280;49397;47.474;9.416;2022-11-03T10:55:59;95321.88;;;10.86;92.12
11268;BME280;49397;47.474;9.416;2022-11-03T10:58:24;95323.00;;;10.93;92.04
11268;BME280;49397;47.474;9.416;2022-11-03T11:00:50;95300.03;;;10.99;91.31
11268;BME280;49397;47.474;9.416;2022-11-03T11:03:15;95307.00;;;10.83;90.55
11268;BME280;49397;47.474;9.416;2022-11-03T11:05:45;95301.13;;;10.81;90.54
11268;BME280;49397;47.474;9.416;2022-11-03T11:08:13;95305.06;;;10.75;90.63
11268;BME280;49397;47.474;9.416;2022-11-03T11:10:43;95313.09;;;10.89;91.10
11268;BME280;49397;47.474;9.416;2022-11-03T11:13:23;95316.94;;;10.96;90.85
11268;BME280;49397;47.474;9.416;2022-11-03T11:15:52;95305.31;;;11.04;89.12
11268;BME280;49397;47.474;9.416;2022-11-03T11:23:43;95266.53;;;11.55;87.09
11268;BME280;49397;47.474;9.416;2022-11-03T11:28:39;95263.81;;;11.72;87.34
11268;BME280;49397;47.474;9.416;2022-11-03T11:31:28;95245.63;;;11.72;88.34
11268;BME280;49397;47.474;9.416;2022-11-03T11:42:04;95230.44;;;12.55;85.49
11268;BME280;49397;47.474;9.416;2022-11-03T11:44:39;95226.47;;;12.53;85.58
11268;BME280;49397;47.474;9.416;2022-11-03T11:49:45;95224.16;;;12.34;84.79
11268;BME280;49397;47.474;9.416;2022-11-03T11:52:11;95204.59;;;12.03;86.88
11268;BME280;49397;47.474;9.416;2022-11-03T11:54:40;95200.75;;;12.04;86.33
11268;BME280;49397;47.474;9.416;2022-11-03T11:57:18;95190.38;;;11.97;87.20
11268;BME280;49397;47.474;9.416;2022-11-03T11:59:45;95177.13;;;11.87;88.52
11268;BME280;49397;47.474;9.416;2022-11-03T12:02:23;95188.81;;;11.88;88.13
11268;BME280;49397;47.474;9.416;2022-11-03T12:04:56;95189.81;;;11.75;87.47
11268;BME280;49397;47.474;9.416;2022-11-03T12:07:35;95196.69;;;11.72;87.70
11268;BME280;49397;47.474;9.416;2022-11-03T12:10:30;95187.34;;;11.99;87.44
11268;BME280;49397;47.474;9.416;2022-11-03T12:12:57;95168.63;;;11.97;86.88
11268;BME280;49397;47.474;9.416;2022-11-03T12:15:49;95154.97;;;12.14;87.93
11268;BME280;49397;47.474;9.416;2022-11-03T12:18:30;95137.44;;;12.03;87.91
11268;BME280;49397;47.474;9.416;2022-11-03T12:20:55;95136.34;;;11.96;88.51
11268;BME280;49397;47.474;9.416;2022-11-03T12:26:04;95124.50;;;12.00;88.22
11268;BME280;49397;47.474;9.416;2022-11-03T12:28:31;95126.06;;;12.01;87.67
11268;BME280;49397;47.474;9.416;2022-11-03T12:30:57;95121.59;;;12.05;87.42
11268;BME280;49397;47.474;9.416;2022-11-03T12:33:22;95111.25;;;11.90;87.42
11268;BME280;49397;47.474;9.416;2022-11-03T12:35:47;95103.22;;;12.02;87.68
11268;BME280;49397;47.474;9.416;2022-11-03T12:38:13;95087.94;;;11.81;88.28
11268;BME280;49397;47.474;9.416;2022-11-03T12:40:38;95106.38;;;11.75;88.41
11268;BME280;49397;47.474;9.416;2022-11-03T12:43:04;95089.44;;;11.61;89.56
11268;BME280;49397;47.474;9.416;2022-11-03T12:45:29;95080.66;;;11.56;90.16
11268;BME280;49397;47.474;9.416;2022-11-03T12:47:55;95083.75;;;11.46;90.39
11268;BME280;49397;47.474;9.416;2022-11-03T12:50:20;95072.88;;;11.46;89.85
11268;BME280;49397;47.474;9.416;2022-11-03T12:52:46;95067.47;;;11.29;90.81
11268;BME280;49397;47.474;9.416;2022-11-03T12:55:11;95060.16;;;11.21;91.23
11268;BME280;49397;47.474;9.416;2022-11-03T12:57:37;95054.28;;;11.10;91.66
11268;BME280;49397;47.474;9.416;2022-11-03T13:00:02;95042.75;;;11.22;92.11
11268;BME280;49397;47.474;9.416;2022-11-03T13:02:29;95027.66;;;10.95;91.99
11268;BME280;49397;47.474;9.416;2022-11-03T13:04:55;95029.25;;;10.96;92.96
11268;BME280;49397;47.474;9.416;2022-11-03T13:07:21;95016.13;;;11.07;93.31
11268;BME280;49397;47.474;9.416;2022-11-03T13:09:46;95003.34;;;11.07;92.62
11268;BME280;49397;47.474;9.416;2022-11-03T13:12:12;94993.59;;;11.15;92.84
11268;BME280;49397;47.474;9.416;2022-11-03T13:14:56;94985.59;;;11.10;93.37
11268;BME280;49397;47.474;9.416;2022-11-03T13:17:22;94977.00;;;11.08;92.97
11268;BME280;49397;47.474;9.416;2022-11-03T13:19:48;94980.00;;;11.15;92.28
11268;BME280;49397;47.474;9.416;2022-11-03T13:22:13;94986.75;;;11.09;92.41
11268;BME280;49397;47.474;9.416;2022-11-03T13:24:39;94975.72;;;11.05;92.37
11268;BME280;49397;47.474;9.416;2022-11-03T13:27:04;94958.38;;;10.89;92.75
11268;BME280;49397;47.474;9.416;2022-11-03T13:29:30;94940.66;;;10.92;93.76
11268;BME280;49397;47.474;9.416;2022-11-03T13:31:55;94966.66;;;11.01;94.19
11268;BME280;49397;47.474;9.416;2022-11-03T13:34:21;94959.09;;;11.15;94.53
11268;BME280;49397;47.474;9.416;2022-11-03T13:36:46;94953.19;;;11.13;93.56
11268;BME280;49397;47.474;9.416;2022-11-03T13:39:12;94946.03;;;11.00;94.53
11268;BME280;49397;47.474;9.416;2022-11-03T13:41:37;94924.22;;;10.88;95.41
11268;BME280;49397;47.474;9.416;2022-11-03T13:44:03;94919.56;;;10.97;95.25
11268;BME280;49397;47.474;9.416;2022-11-03T13:46:28;94904.25;;;10.93;95.01
11268;BME280;49397;47.474;9.416;2022-11-03T13:48:54;94889.03;;;11.00;94.78
11268;BME280;49397;47.474;9.416;2022-11-03T13:51:19;94877.00;;;10.81;95.93
11268;BME280;49397;47.474;9.416;2022-11-03T13:53:45;94894.41;;;10.80;95.92
11268;BME280;49397;47.474;9.416;2022-11-03T13:56:12;94856.34;;;10.59;96.59
11268;BME280;49397;47.474;9.416;2022-11-03T13:58:37;94862.88;;;10.58;97.46